Time;durP1;ratioP1;P1;durP2;ratioP2;P2;SDS_P1;SDS_P2;PMS_P1;PMS_P2;Temp;Humidity;BMP_temperature;BMP_pressure;BME280_temperature;BME280_humidity;BME280_pressure;Samples;Min_cycle;Max_cycle;Signal;HPM_P1;HPM_P2
2023/06/09 00:04:29;;;;;;;12.52;10.02;;;;;;;18.22;62.01;100373.81;10142032;29;20056;-77
2023/06/09 00:09:33;;;;;;;11.60;10.40;;;;;;;18.38;61.04;100368.31;10120150;29;20428;-76
2023/06/09 00:14:36;;;;;;;11.35;10.07;;;;;;;18.40;60.86;100355.34;10120230;29;20060;-76
2023/06/09 00:19:41;;;;;;;11.55;10.02;;;;;;;18.26;60.93;100356.94;10119609;29;20052;-77
2023/06/09 00:24:45;;;;;;;12.40;10.93;;;;;;;18.14;61.46;100351.03;10125492;29;20558;-77
2023/06/09 00:29:48;;;;;;;13.95;10.18;;;;;;;18.01;61.79;100355.31;10121879;29;20052;-76
2023/06/09 00:34:52;;;;;;;18.17;10.90;;;;;;;18.02;61.82;100338.00;10120073;29;20044;-78
2023/06/09 00:39:56;;;;;;;17.27;11.68;;;;;;;17.90;61.70;100345.63;10128532;29;20060;-77
2023/06/09 00:44:58;;;;;;;13.77;11.45;;;;;;;17.89;62.04;100349.38;10135984;29;20062;-77
2023/06/09 00:50:03;;;;;;;15.40;11.38;;;;;;;17.95;61.85;100354.13;10120335;29;20051;-77
2023/06/09 00:55:07;;;;;;;13.35;11.88;;;;;;;17.96;61.58;100361.25;10137375;29;20072;-77
2023/06/09 01:00:15;;;;;;;14.27;11.82;;;;;;;17.95;61.82;100365.00;10139018;29;20049;-77
2023/06/09 01:05:19;;;;;;;15.88;10.88;;;;;;;17.87;62.15;100365.00;10142824;29;20053;-77
2023/06/09 01:10:26;;;;;;;14.55;11.20;;;;;;;17.87;62.34;100367.72;10125760;29;20049;-77
2023/06/09 01:15:35;;;;;;;13.90;11.18;;;;;;;17.81;62.41;100363.00;10119931;29;20077;-77
2023/06/09 01:20:45;;;;;;;13.75;12.35;;;;;;;17.79;62.39;100359.59;10115515;29;20472;-74
2023/06/09 01:25:52;;;;;;;14.95;11.77;;;;;;;17.70;62.50;100354.16;10117740;29;20048;-77
2023/06/09 01:30:57;;;;;;;12.80;10.75;;;;;;;17.70;62.43;100356.88;10115100;29;20087;-76
2023/06/09 01:36:00;;;;;;;14.60;11.43;;;;;;;17.62;62.52;100364.19;10116448;29;20055;-76
2023/06/09 01:41:05;;;;;;;13.57;10.38;;;;;;;17.52;63.23;100364.34;10121684;29;20048;-77
2023/06/09 01:46:08;;;;;;;11.65;10.32;;;;;;;17.46;63.32;100354.19;10125357;29;20053;-77
2023/06/09 01:51:16;;;;;;;14.27;10.88;;;;;;;17.38;63.76;100356.91;10122409;29;20059;-77
2023/06/09 01:56:26;;;;;;;17.63;12.52;;;;;;;17.32;64.00;100361.13;10120611;29;20570;-76
2023/06/09 02:01:31;;;;;;;15.05;11.23;;;;;;;17.31;63.75;100356.72;10130599;29;20044;-77
2023/06/09 02:06:36;;;;;;;17.35;11.70;;;;;;;17.21;63.80;100346.03;10127892;29;20048;-77
2023/06/09 02:11:40;;;;;;;14.93;11.85;;;;;;;17.11;64.40;100350.72;10126524;29;20611;-77
2023/06/09 02:16:53;;;;;;;18.43;12.67;;;;;;;17.09;64.29;100343.81;10123506;29;20127;-77
2023/06/09 02:21:56;;;;;;;16.02;11.70;;;;;;;17.11;64.17;100353.44;10126594;29;20508;-76
2023/06/09 02:27:00;;;;;;;16.48;12.07;;;;;;;17.01;64.37;100339.19;10119251;29;20044;-77
2023/06/09 02:32:07;;;;;;;14.65;11.68;;;;;;;16.97;64.79;100330.53;10122283;29;20496;-76
2023/06/09 02:37:10;;;;;;;14.68;11.55;;;;;;;16.93;64.70;100329.19;10133353;29;20120;-74
2023/06/09 02:42:14;;;;;;;18.92;12.48;;;;;;;16.91;64.53;100328.50;10123451;29;20041;-77
2023/06/09 02:47:18;;;;;;;15.80;11.68;;;;;;;16.98;64.45;100334.13;10125034;29;20048;-76
2023/06/09 02:52:21;;;;;;;19.70;13.50;;;;;;;16.77;64.57;100340.00;10119394;29;20080;-77
2023/06/09 02:57:27;;;;;;;16.88;12.43;;;;;;;16.26;66.51;100355.41;10119478;29;20524;-76
2023/06/09 03:02:32;;;;;;;15.30;11.45;;;;;;;16.04;67.31;100352.19;10116758;29;20588;-77
2023/06/09 03:07:36;;;;;;;15.43;11.90;;;;;;;15.95;68.30;100355.03;10118407;29;20060;-77
2023/06/09 03:12:41;;;;;;;17.20;11.63;;;;;;;15.87;68.15;100359.38;10146755;29;20074;-76
2023/06/09 03:17:44;;;;;;;17.13;12.23;;;;;;;16.07;67.47;100361.88;10140991;29;20135;-76
2023/06/09 03:22:48;;;;;;;17.55;13.10;;;;;;;16.16;66.90;100363.63;10119234;29;20096;-77
2023/06/09 03:27:54;;;;;;;16.70;13.23;;;;;;;15.98;67.31;100376.38;10114089;29;20466;-77
2023/06/09 03:32:57;;;;;;;14.88;12.82;;;;;;;15.71;68.49;100383.63;10117046;29;20037;-75
2023/06/09 03:38:00;;;;;;;15.00;12.75;;;;;;;15.67;68.85;100380.41;10118255;29;20041;-76
2023/06/09 03:43:07;;;;;;;15.85;13.32;;;;;;;15.96;68.40;100381.09;10118271;29;20049;-76
2023/06/09 03:48:10;;;;;;;14.85;12.07;;;;;;;16.05;67.08;100383.72;10123032;29;20661;-76
2023/06/09 03:53:13;;;;;;;15.13;13.05;;;;;;;16.08;67.42;100380.69;10120097;29;20048;-77
2023/06/09 03:58:18;;;;;;;17.88;13.32;;;;;;;16.21;67.36;100382.09;10114502;29;20052;-77
2023/06/09 04:03:22;;;;;;;16.13;13.10;;;;;;;16.31;66.61;100372.88;10121568;29;20128;-76
2023/06/09 04:08:25;;;;;;;17.05;12.45;;;;;;;16.28;66.46;100378.63;10119562;29;20053;-76
2023/06/09 04:13:30;;;;;;;16.58;13.60;;;;;;;16.30;66.60;100375.75;10114454;29;20068;-77
2023/06/09 04:18:33;;;;;;;16.65;13.63;;;;;;;16.31;66.86;100375.56;10111763;29;20060;-77
2023/06/09 04:23:38;;;;;;;15.68;12.52;;;;;;;16.38;66.10;100377.66;10113161;29;20068;-77
2023/06/09 04:28:44;;;;;;;15.02;12.95;;;;;;;16.42;66.39;100379.03;10118516;29;20049;-76
2023/06/09 04:33:48;;;;;;;15.70;12.50;;;;;;;16.42;66.78;100379.88;10112254;29;20048;-77
2023/06/09 04:38:51;;;;;;;17.75;13.57;;;;;;;16.54;66.24;100384.00;10111361;29;20095;-76
2023/06/09 04:44:03;;;;;;;15.48;13.82;;;;;;;16.64;66.08;100378.44;10133659;29;20041;-76
2023/06/09 04:49:08;;;;;;;14.90;11.93;;;;;;;16.42;66.84;100381.72;10134253;29;20083;-76
2023/06/09 04:54:12;;;;;;;17.70;13.57;;;;;;;16.28;67.47;100377.78;10103265;29;20041;-77
2023/06/09 04:59:17;;;;;;;17.90;14.10;;;;;;;16.32;67.77;100377.28;10112883;29;20056;-77
2023/06/09 05:04:20;;;;;;;16.70;13.60;;;;;;;16.43;67.93;100378.88;10111014;29;20677;-77
2023/06/09 05:09:24;;;;;;;16.83;14.30;;;;;;;16.61;67.68;100396.91;10134241;29;20053;-77
2023/06/09 05:14:29;;;;;;;19.15;14.38;;;;;;;16.57;69.66;100405.38;10112441;29;20068;-77
2023/06/09 05:19:35;;;;;;;17.15;14.80;;;;;;;15.98;72.40;100406.19;10131996;29;20053;-76
2023/06/09 05:24:38;;;;;;;21.48;14.45;;;;;;;16.61;70.72;100407.75;10114196;29;20397;-78
2023/06/09 05:29:43;;;;;;;17.63;13.93;;;;;;;17.00;68.42;100408.03;10112716;29;20076;-76
2023/06/09 05:34:47;;;;;;;15.98;13.20;;;;;;;17.26;66.10;100405.25;10142596;29;20045;-78
2023/06/09 05:39:50;;;;;;;18.02;13.35;;;;;;;17.56;64.14;100411.91;10116201;29;20147;-76
2023/06/09 05:44:54;;;;;;;18.02;13.30;;;;;;;17.58;64.71;100409.00;10116472;29;20033;-77
2023/06/09 05:49:57;;;;;;;18.92;13.93;;;;;;;17.63;64.93;100417.47;10116752;29;20051;-76
2023/06/09 05:55:01;;;;;;;17.98;13.73;;;;;;;17.92;65.49;100419.69;10116065;29;20045;-77
2023/06/09 06:00:09;;;;;;;14.30;12.80;;;;;;;18.54;64.17;100429.94;10115284;29;20532;-76
2023/06/09 06:05:15;;;;;;;18.42;11.98;;;;;;;19.05;62.57;100414.09;10113262;29;20045;-76
2023/06/09 06:10:18;;;;;;;12.68;11.20;;;;;;;19.24;61.47;100418.22;10115687;29;20044;-75
2023/06/09 06:15:24;;;;;;;14.50;11.55;;;;;;;19.34;60.75;100418.00;10118890;29;20056;-77
2023/06/09 06:20:27;;;;;;;14.73;11.82;;;;;;;19.34;59.97;100423.44;10113959;29;20044;-75
2023/06/09 06:25:30;;;;;;;14.48;11.60;;;;;;;19.35;60.44;100422.41;10111407;29;20093;-75
2023/06/09 06:30:34;;;;;;;15.63;12.52;;;;;;;19.44;61.30;100429.47;10114684;29;20563;-76
2023/06/09 06:35:37;;;;;;;16.08;11.98;;;;;;;19.85;60.49;100426.47;10112772;29;20100;-76
2023/06/09 06:40:42;;;;;;;20.20;12.27;;;;;;;20.17;57.88;100424.47;10115094;29;20479;-73
2023/06/09 06:45:46;;;;;;;13.30;10.40;;;;;;;20.32;57.40;100428.06;10122818;29;20053;-73
2023/06/09 06:50:49;;;;;;;14.68;10.43;;;;;;;20.55;58.43;100431.56;10125133;29;20048;-73
2023/06/09 06:55:52;;;;;;;12.48;10.52;;;;;;;20.85;58.52;100423.34;10126310;29;20033;-73
2023/06/09 07:00:57;;;;;;;12.70;9.88;;;;;;;21.01;56.74;100430.47;10122305;29;20052;-71
2023/06/09 07:06:01;;;;;;;12.98;10.27;;;;;;;21.17;56.57;100429.41;10122900;29;20044;-72
2023/06/09 07:11:05;;;;;;;11.65;10.07;;;;;;;21.39;56.54;100431.16;10121807;29;20051;-73
2023/06/09 07:16:09;;;;;;;13.55;10.35;;;;;;;21.61;56.00;100434.72;10119332;29;20052;-73
2023/06/09 07:21:12;;;;;;;13.63;9.60;;;;;;;22.52;53.67;100429.38;10120597;29;20101;-73
2023/06/09 07:26:15;;;;;;;13.43;8.40;;;;;;;24.56;49.64;100422.75;10122875;29;20045;-73
2023/06/09 07:31:19;;;;;;;8.73;7.68;;;;;;;26.30;44.71;100423.38;10123522;29;20079;-73
2023/06/09 07:36:24;;;;;;;8.23;7.43;;;;;;;27.16;43.04;100422.41;10124406;29;20040;-74
2023/06/09 07:41:28;;;;;;;11.02;7.65;;;;;;;27.48;41.04;100426.84;10116039;29;20453;-74
2023/06/09 07:46:32;;;;;;;9.27;8.05;;;;;;;27.44;40.51;100433.91;10118171;29;20124;-74
2023/06/09 07:51:36;;;;;;;8.02;7.22;;;;;;;27.02;41.12;100437.44;10118482;29;20048;-74
2023/06/09 07:56:40;;;;;;;12.57;7.75;;;;;;;26.17;42.21;100427.09;10118357;29;20511;-72
2023/06/09 08:01:44;;;;;;;10.25;8.23;;;;;;;25.92;43.63;100426.25;10118059;29;20044;-76
2023/06/09 08:06:48;;;;;;;10.68;8.10;;;;;;;26.21;43.31;100421.97;10126148;29;20124;-75
2023/06/09 08:11:51;;;;;;;10.82;7.90;;;;;;;26.03;43.71;100434.66;10127406;29;20049;-75
2023/06/09 08:16:55;;;;;;;8.45;7.35;;;;;;;26.19;43.42;100424.97;10121727;29;20071;-74
2023/06/09 08:21:58;;;;;;;9.18;8.27;;;;;;;26.26;43.00;100425.75;10119705;29;20056;-74
2023/06/09 08:27:01;;;;;;;8.60;7.35;;;;;;;26.14;43.57;100426.69;10120721;29;20041;-74
2023/06/09 08:32:07;;;;;;;12.70;7.90;;;;;;;26.49;43.55;100425.13;10122952;29;20052;-75
2023/06/09 08:37:10;;;;;;;8.20;6.63;;;;;;;26.21;41.73;100420.06;10125198;29;20715;-74
2023/06/09 08:42:20;;;;;;;8.65;6.95;;;;;;;26.65;42.54;100409.03;10124597;29;20457;-74
2023/06/09 08:47:26;;;;;;;7.03;5.68;;;;;;;26.78;40.98;100405.28;10123056;29;20045;-77
2023/06/09 08:52:30;;;;;;;6.00;5.38;;;;;;;27.13;39.09;100398.06;10116452;29;20415;-77
2023/06/09 08:57:34;;;;;;;8.07;6.38;;;;;;;27.35;38.97;100398.38;10115695;29;20051;-75
2023/06/09 09:02:42;;;;;;;6.10;5.50;;;;;;;27.47;37.22;100395.66;10118768;29;20076;-76
2023/06/09 09:07:46;;;;;;;6.53;5.18;;;;;;;27.83;36.44;100396.56;10112553;29;20137;-76
2023/06/09 09:12:50;;;;;;;5.53;5.05;;;;;;;27.91;35.86;100401.72;10112301;29;20087;-77
2023/06/09 09:17:54;;;;;;;8.70;5.60;;;;;;;27.44;36.13;100390.63;10109853;29;20060;-77
2023/06/09 09:22:57;;;;;;;5.60;5.10;;;;;;;27.72;36.81;100389.94;10105721;29;20092;-76
2023/06/09 09:28:02;;;;;;;7.32;5.05;;;;;;;27.68;36.35;100393.44;10105748;29;20056;-77
2023/06/09 09:33:08;;;;;;;6.75;5.72;;;;;;;27.83;36.68;100388.28;10106594;29;20049;-76
2023/06/09 09:38:14;;;;;;;6.18;5.25;;;;;;;28.15;36.95;100394.31;10111294;29;20584;-76
2023/06/09 09:43:18;;;;;;;7.82;5.50;;;;;;;28.57;35.49;100385.88;10112455;29;20048;-78
2023/06/09 09:48:25;;;;;;;8.23;5.28;;;;;;;29.15;35.54;100382.13;10112666;29;20049;-77
2023/06/09 09:53:28;;;;;;;5.68;5.18;;;;;;;29.06;34.97;100386.34;10113167;29;20545;-77
2023/06/09 09:58:35;;;;;;;5.68;5.20;;;;;;;29.11;35.38;100380.94;10117413;29;20104;-77
2023/06/09 10:03:42;;;;;;;8.32;5.47;;;;;;;29.76;35.05;100376.00;10114613;29;20028;-76
2023/06/09 10:08:46;;;;;;;7.32;5.05;;;;;;;29.86;34.00;100378.09;10118588;29;20053;-77
2023/06/09 10:13:49;;;;;;;5.97;5.13;;;;;;;30.09;33.32;100380.66;10112890;29;20044;-76
2023/06/09 10:18:54;;;;;;;5.45;4.82;;;;;;;30.47;33.61;100370.66;10117553;29;20040;-76
2023/06/09 10:23:59;;;;;;;6.13;5.32;;;;;;;29.84;33.56;100366.41;10123381;29;20045;-77
2023/06/09 10:29:08;;;;;;;6.80;5.75;;;;;;;30.20;34.29;100367.84;10124101;29;20064;-76
2023/06/09 10:34:14;;;;;;;7.70;5.40;;;;;;;29.93;33.20;100371.28;10122510;29;20052;-76
2023/06/09 10:39:18;;;;;;;6.15;5.50;;;;;;;30.28;33.53;100372.06;10124371;29;20072;-77
2023/06/09 10:44:30;;;;;;;5.72;5.22;;;;;;;30.33;33.15;100363.84;10124378;29;20096;-77
2023/06/09 10:49:42;;;;;;;6.70;5.38;;;;;;;30.37;32.92;100357.53;10130647;29;20501;-77
2023/06/09 10:55:12;;;;;;;6.50;5.50;;;;;;;30.83;33.00;100349.81;10129921;29;20052;-77
2023/06/09 11:00:16;;;;;;;8.15;5.60;;;;;;;30.96;32.45;100356.88;10141129;29;20062;-77
2023/06/09 11:05:21;;;;;;;6.93;5.43;;;;;;;31.10;32.41;100355.38;10134095;29;20043;-76
2023/06/09 11:10:26;;;;;;;6.95;5.75;;;;;;;30.85;32.03;100350.38;10131831;29;20040;-76
2023/06/09 11:16:00;;;;;;;6.03;5.32;;;;;;;31.24;32.74;100349.41;10131601;29;20512;-75
2023/06/09 11:21:20;;;;;;;6.38;5.30;;;;;;;31.35;32.87;100346.50;10125477;29;20132;-78
2023/06/09 11:26:24;;;;;;;5.38;4.90;;;;;;;31.50;33.58;100336.63;10122080;29;20037;-78
2023/06/09 11:31:27;;;;;;;5.93;5.35;;;;;;;32.12;31.95;100326.81;10121392;29;20059;-78
2023/06/09 11:36:32;;;;;;;5.93;5.35;;;;;;;32.41;31.63;100330.00;10134373;29;20056;-77
2023/06/09 11:41:35;;;;;;;8.25;5.95;;;;;;;31.97;30.62;100325.59;10125141;29;20136;-77
2023/06/09 11:46:38;;;;;;;6.63;5.22;;;;;;;32.06;30.91;100328.69;10112175;29;20032;-76
2023/06/09 11:51:57;;;;;;;5.30;4.80;;;;;;;32.27;30.61;100328.84;10120579;29;20052;-77
2023/06/09 11:56:59;;;;;;;9.30;5.90;;;;;;;32.28;29.81;100336.06;10125039;29;20105;-76
2023/06/09 12:02:02;;;;;;;6.15;5.28;;;;;;;32.85;30.43;100329.63;10128473;29;20045;-77
2023/06/09 12:07:10;;;;;;;6.40;5.15;;;;;;;31.96;30.31;100332.25;10125095;29;20053;-77
2023/06/09 12:12:13;;;;;;;6.85;5.32;;;;;;;31.75;30.98;100333.22;10114144;29;20475;-77
2023/06/09 12:17:16;;;;;;;7.57;5.60;;;;;;;31.89;30.05;100326.09;10128327;29;20040;-76
2023/06/09 12:22:21;;;;;;;6.40;5.68;;;;;;;32.27;30.01;100312.16;10124545;29;20048;-79
2023/06/09 12:27:25;;;;;;;6.82;5.57;;;;;;;32.27;29.87;100315.78;10126783;29;20076;-77
2023/06/09 12:32:27;;;;;;;6.32;5.18;;;;;;;32.27;30.59;100314.94;10120365;29;20044;-77
2023/06/09 12:37:38;;;;;;;6.82;5.05;;;;;;;32.18;30.15;100309.91;10134166;29;20056;-76
2023/06/09 12:42:47;;;;;;;6.43;5.50;;;;;;;32.13;30.22;100295.13;10128109;29;20060;-77
2023/06/09 12:47:51;;;;;;;6.13;5.53;;;;;;;32.78;29.86;100282.63;10137237;29;20056;-76
2023/06/09 12:52:55;;;;;;;7.10;5.82;;;;;;;32.23;31.31;100292.44;10130336;29;20064;-78
2023/06/09 12:57:58;;;;;;;6.53;4.93;;;;;;;32.04;30.02;100291.19;10123412;29;20421;-77
2023/06/09 13:03:03;;;;;;;6.20;5.03;;;;;;;32.46;29.91;100291.13;10129755;29;20059;-75
2023/06/09 13:08:08;;;;;;;6.60;6.00;;;;;;;32.26;30.27;100285.50;10128303;29;20382;-77
2023/06/09 13:13:11;;;;;;;10.13;5.80;;;;;;;33.09;30.45;100288.22;10127273;29;20068;-76
2023/06/09 13:18:15;;;;;;;6.90;6.20;;;;;;;33.24;29.59;100276.28;10121578;29;20055;-76
2023/06/09 13:23:19;;;;;;;6.80;6.10;;;;;;;31.97;31.01;100288.66;10121601;29;20052;-76
2023/06/09 13:28:22;;;;;;;6.63;6.13;;;;;;;33.25;29.98;100291.88;10119042;29;20429;-76
2023/06/09 13:33:25;;;;;;;6.03;5.50;;;;;;;33.24;30.40;100284.63;10117765;29;20116;-77
2023/06/09 13:38:29;;;;;;;5.40;5.00;;;;;;;33.95;29.30;100286.50;10111493;29;20049;-77
2023/06/09 13:43:32;;;;;;;5.93;5.30;;;;;;;33.69;28.73;100278.22;10108093;29;20044;-79
2023/06/09 13:48:35;;;;;;;6.03;5.50;;;;;;;33.35;28.41;100279.91;10110923;29;20117;-77
2023/06/09 13:53:40;;;;;;;6.35;5.78;;;;;;;33.78;27.62;100275.69;10115780;29;20078;-77
2023/06/09 13:58:42;;;;;;;6.20;5.60;;;;;;;33.55;27.35;100275.16;10134134;29;20063;-77
2023/06/09 14:03:45;;;;;;;6.90;5.45;;;;;;;33.63;27.29;100270.16;10119991;29;20063;-77
2023/06/09 14:08:50;;;;;;;6.45;5.70;;;;;;;33.26;27.27;100269.31;10125145;29;20115;-77
2023/06/09 14:13:53;;;;;;;6.07;5.57;;;;;;;33.43;27.47;100266.25;10138578;29;20052;-78
2023/06/09 14:18:56;;;;;;;6.95;5.70;;;;;;;33.60;28.09;100265.97;10138678;29;20056;-78
2023/06/09 14:24:02;;;;;;;6.53;5.65;;;;;;;33.75;27.25;100268.72;10147570;29;20108;-77
2023/06/09 14:29:05;;;;;;;6.85;6.15;;;;;;;33.70;27.46;100273.47;10149634;29;20476;-78
2023/06/09 14:34:08;;;;;;;6.97;6.13;;;;;;;33.74;27.91;100264.28;10151917;29;20052;-78
2023/06/09 14:39:12;;;;;;;7.85;6.75;;;;;;;33.32;28.53;100265.44;10150992;29;20059;-75
2023/06/09 14:44:16;;;;;;;7.00;5.97;;;;;;;33.41;29.75;100254.56;10150148;29;20059;-78
2023/06/09 14:49:19;;;;;;;7.38;5.63;;;;;;;33.50;28.41;100247.31;10135746;29;20041;-76
2023/06/09 14:54:23;;;;;;;8.00;6.07;;;;;;;33.63;28.14;100247.91;10137553;29;20067;-77
2023/06/09 14:59:26;;;;;;;6.13;5.55;;;;;;;33.33;28.09;100242.06;10134495;29;20112;-77
2023/06/09 15:04:29;;;;;;;6.13;5.28;;;;;;;32.47;28.84;100244.69;10141067;29;20048;-77
2023/06/09 15:09:33;;;;;;;5.55;5.00;;;;;;;32.39;28.47;100238.59;10154191;29;20104;-77
2023/06/09 15:14:36;;;;;;;6.03;4.80;;;;;;;32.36;27.56;100241.88;10143764;29;20060;-76
2023/06/09 15:19:38;;;;;;;5.68;5.18;;;;;;;32.01;27.47;100235.06;10136609;29;20049;-76
2023/06/09 15:24:43;;;;;;;5.30;4.50;;;;;;;31.99;27.84;100234.50;10135840;29;20047;-77
2023/06/09 15:29:47;;;;;;;7.15;5.55;;;;;;;32.35;28.25;100234.66;10144648;29;20143;-77
2023/06/09 15:34:51;;;;;;;5.90;5.18;;;;;;;32.67;27.32;100242.00;10133485;29;20480;-76
2023/06/09 15:39:56;;;;;;;5.95;4.90;;;;;;;32.89;27.09;100248.16;10144769;29;20439;-77
2023/06/09 15:44:59;;;;;;;5.72;5.22;;;;;;;32.09;27.51;100244.84;10138757;29;20048;-77
2023/06/09 15:50:03;;;;;;;5.22;4.82;;;;;;;32.09;27.57;100236.50;10134745;29;20045;-77
2023/06/09 16:00:46;;;;;;;5.50;4.53;;;;;;;32.82;27.26;100235.63;10967882;23;19923;-75
2023/06/09 16:05:49;;;;;;;6.80;5.05;;;;;;;32.11;27.93;100241.78;10168256;29;20095;-77
2023/06/09 16:10:53;;;;;;;5.80;4.95;;;;;;;32.91;28.06;100231.16;10116289;29;20060;-77
2023/06/09 16:15:57;;;;;;;6.00;5.40;;;;;;;32.45;28.03;100234.69;10135338;29;20728;-78
2023/06/09 16:21:01;;;;;;;5.35;4.95;;;;;;;31.02;29.16;100228.28;10163988;29;20143;-77
2023/06/09 16:26:04;;;;;;;7.35;5.15;;;;;;;31.28;29.12;100239.59;10168863;29;20047;-76
2023/06/09 16:31:08;;;;;;;6.07;4.45;;;;;;;32.87;27.48;100230.91;10168901;29;20052;-75
2023/06/09 16:36:11;;;;;;;5.53;4.85;;;;;;;35.04;25.44;100219.59;10167430;29;20040;-76
2023/06/09 16:41:14;;;;;;;6.32;4.82;;;;;;;37.83;22.98;100222.72;10166742;29;20044;-77
2023/06/09 16:46:19;;;;;;;5.82;5.10;;;;;;;38.64;22.10;100210.03;10168236;29;20047;-76
2023/06/09 16:51:22;;;;;;;5.40;4.90;;;;;;;38.53;21.89;100210.28;10169244;29;20099;-76
2023/06/09 16:56:26;;;;;;;6.85;5.00;;;;;;;39.11;21.54;100207.75;10169107;29;20106;-82
2023/06/09 17:01:31;;;;;;;6.10;5.50;;;;;;;39.20;21.10;100214.28;10167465;29;20070;-75
2023/06/09 17:06:34;;;;;;;5.35;4.90;;;;;;;39.92;20.89;100210.34;10164756;29;20052;-78
2023/06/09 17:11:37;;;;;;;8.65;5.20;;;;;;;39.08;21.49;100214.84;10167325;29;20048;-78
2023/06/09 17:16:42;;;;;;;7.05;5.43;;;;;;;39.66;21.26;100213.00;10166962;29;20123;-76
2023/06/09 17:21:46;;;;;;;7.10;5.63;;;;;;;39.90;21.06;100210.66;10167829;29;20063;-76
2023/06/09 17:26:50;;;;;;;6.10;5.07;;;;;;;39.73;21.82;100213.38;10166974;29;20032;-76
2023/06/09 17:31:56;;;;;;;6.15;5.25;;;;;;;40.57;21.49;100210.63;10167505;29;20048;-77
2023/06/09 17:37:00;;;;;;;5.78;5.28;;;;;;;40.03;21.83;100208.03;10175829;29;20043;-78
2023/06/09 17:42:04;;;;;;;6.03;5.53;;;;;;;38.89;22.59;100209.41;10166893;29;20131;-76
2023/06/09 17:47:09;;;;;;;7.07;6.07;;;;;;;37.59;24.13;100217.28;10167233;29;20055;-79
2023/06/09 17:52:14;;;;;;;7.65;5.65;;;;;;;33.24;28.57;100226.19;10166394;29;20482;-77
2023/06/09 17:57:17;;;;;;;8.90;5.30;;;;;;;30.88;31.87;100224.25;10168955;29;20036;-77
2023/06/09 18:02:22;;;;;;;8.45;5.88;;;;;;;29.31;34.44;100233.03;10165665;29;20117;-76
2023/06/09 18:07:26;;;;;;;6.72;6.03;;;;;;;28.75;35.37;100235.66;10165337;29;20079;-76
2023/06/09 18:12:29;;;;;;;11.15;6.15;;;;;;;28.20;36.28;100238.97;10166897;29;20044;-78
2023/06/09 18:17:33;;;;;;;8.85;6.35;;;;;;;27.76;37.08;100244.09;10168378;29;20463;-76
2023/06/09 18:22:38;;;;;;;7.93;6.45;;;;;;;27.58;37.64;100240.34;10168116;29;20048;-76
2023/06/09 18:27:41;;;;;;;7.47;6.70;;;;;;;27.26;38.11;100239.00;10159675;29;20076;-80
2023/06/09 18:32:46;;;;;;;9.15;6.72;;;;;;;27.09;38.69;100247.97;10167229;29;20685;-78
2023/06/09 18:37:49;;;;;;;8.68;6.38;;;;;;;26.93;38.93;100252.28;10166301;29;20503;-77
2023/06/09 18:42:52;;;;;;;10.13;6.68;;;;;;;26.71;39.50;100248.31;10174645;29;20047;-77
2023/06/09 18:47:57;;;;;;;8.63;6.97;;;;;;;26.65;39.68;100257.53;10174859;29;20040;-77
2023/06/09 18:53:01;;;;;;;9.10;6.93;;;;;;;26.43;40.33;100255.28;10170231;29;20132;-75
2023/06/09 18:58:04;;;;;;;8.82;7.15;;;;;;;26.20;40.98;100250.47;10171338;29;20050;-74
2023/06/09 19:03:09;;;;;;;8.32;6.22;;;;;;;25.99;41.45;100261.94;10172084;29;20048;-76
2023/06/09 19:08:12;;;;;;;8.00;6.95;;;;;;;25.84;41.94;100260.44;10167315;29;20103;-74
2023/06/09 19:13:15;;;;;;;9.45;7.53;;;;;;;25.71;42.22;100265.22;10175489;29;20060;-73
2023/06/09 19:18:20;;;;;;;7.97;7.18;;;;;;;25.57;42.84;100261.72;10171987;29;20072;-73
2023/06/09 19:23:24;;;;;;;8.02;6.90;;;;;;;25.40;43.22;100261.47;10171556;29;20046;-75
2023/06/09 19:28:26;;;;;;;9.55;7.32;;;;;;;25.33;43.55;100261.53;10169419;29;20048;-73
2023/06/09 19:33:31;;;;;;;7.93;6.88;;;;;;;24.92;45.01;100267.53;10171596;29;20036;-75
2023/06/09 19:38:34;;;;;;;8.25;7.45;;;;;;;24.68;45.45;100277.38;10174096;29;20112;-75
2023/06/09 19:43:37;;;;;;;10.50;7.60;;;;;;;24.53;45.87;100284.00;10172619;29;20186;-73
2023/06/09 19:48:42;;;;;;;7.93;7.22;;;;;;;24.37;46.51;100281.72;10170827;29;20054;-76
2023/06/09 19:53:45;;;;;;;9.15;8.25;;;;;;;24.22;46.49;100284.75;10172854;29;20173;-74
2023/06/09 19:58:48;;;;;;;9.43;7.50;;;;;;;24.09;47.20;100287.53;10171397;29;20503;-73
2023/06/09 20:03:52;;;;;;;8.55;7.70;;;;;;;24.01;47.32;100293.28;10173817;29;20048;-73
2023/06/09 20:08:55;;;;;;;10.23;8.38;;;;;;;23.90;47.56;100307.66;10170068;29;20099;-74
2023/06/09 20:13:58;;;;;;;8.35;7.28;;;;;;;23.71;47.92;100309.34;10172015;29;20052;-74
2023/06/09 20:19:02;;;;;;;8.32;7.40;;;;;;;23.51;48.21;100315.69;10170979;29;20052;-73
2023/06/09 20:24:06;;;;;;;13.23;7.60;;;;;;;23.38;48.33;100308.28;10171062;29;20060;-74
2023/06/09 20:29:09;;;;;;;10.05;7.30;;;;;;;23.27;48.34;100317.13;10170555;29;20036;-75
2023/06/09 20:34:13;;;;;;;9.55;8.05;;;;;;;23.30;48.79;100319.47;10171449;29;20456;-73
2023/06/09 20:39:16;;;;;;;9.68;8.52;;;;;;;23.23;48.80;100321.38;10170489;29;20040;-75
2023/06/09 20:44:19;;;;;;;11.88;9.55;;;;;;;23.12;48.96;100319.22;10170778;29;20051;-73
2023/06/09 20:49:23;;;;;;;9.70;8.18;;;;;;;22.95;49.44;100321.47;10167406;29;20047;-74
2023/06/09 20:54:26;;;;;;;8.98;8.15;;;;;;;22.80;50.09;100332.63;10167786;29;20059;-75
2023/06/09 20:59:29;;;;;;;9.27;8.00;;;;;;;22.66;50.02;100333.63;10169970;29;20401;-73
2023/06/09 21:04:33;;;;;;;9.32;7.90;;;;;;;22.42;50.07;100332.22;10168412;29;20104;-74
2023/06/09 21:09:36;;;;;;;9.50;8.50;;;;;;;22.31;51.10;100345.44;10166383;29;20055;-73
2023/06/09 21:14:39;;;;;;;10.40;8.15;;;;;;;22.16;51.13;100349.34;10168595;29;20527;-74
2023/06/09 21:19:44;;;;;;;11.43;9.10;;;;;;;21.98;51.55;100349.88;10167688;29;20036;-74
2023/06/09 21:24:46;;;;;;;8.73;7.82;;;;;;;21.82;51.83;100361.94;10167849;29;20048;-75
2023/06/09 21:29:49;;;;;;;11.50;8.40;;;;;;;21.54;52.22;100368.22;10167493;29;20531;-73
2023/06/09 21:34:54;;;;;;;11.38;8.98;;;;;;;21.57;50.50;100361.50;10167741;29;20068;-74
2023/06/09 21:39:57;;;;;;;13.20;8.82;;;;;;;21.67;50.20;100367.50;10167915;29;20051;-74
2023/06/09 21:44:59;;;;;;;12.98;9.25;;;;;;;21.69;50.02;100376.31;10167123;29;21616;-73
2023/06/09 21:50:04;;;;;;;13.55;10.23;;;;;;;21.58;50.49;100374.97;10167222;29;20043;-74
2023/06/09 21:55:08;;;;;;;11.93;9.65;;;;;;;21.53;50.26;100379.34;10166819;29;20055;-73
2023/06/09 22:00:14;;;;;;;10.52;9.40;;;;;;;21.38;49.49;100374.78;10163422;29;20503;-74
2023/06/09 22:05:19;;;;;;;8.98;7.75;;;;;;;21.30;48.18;100383.13;10164911;29;20052;-74
2023/06/09 22:10:22;;;;;;;8.63;7.28;;;;;;;21.27;47.48;100388.97;10164964;29;20051;-73
2023/06/09 22:15:26;;;;;;;11.05;7.18;;;;;;;21.37;46.92;100385.94;10171770;29;20106;-74
2023/06/09 22:20:33;;;;;;;9.07;6.55;;;;;;;21.42;47.09;100388.94;10171424;29;20448;-74
2023/06/09 22:25:37;;;;;;;9.32;6.47;;;;;;;21.29;47.22;100395.09;10173190;29;20059;-74
2023/06/09 22:30:40;;;;;;;13.07;6.85;;;;;;;21.10;47.87;100393.84;10171701;29;20070;-74
2023/06/09 22:35:44;;;;;;;7.93;7.13;;;;;;;21.13;48.73;100393.44;10171712;29;20103;-73
2023/06/09 22:40:48;;;;;;;9.27;7.70;;;;;;;21.02;50.33;100400.22;10171117;29;20462;-74
2023/06/09 22:45:51;;;;;;;10.30;7.20;;;;;;;20.93;49.77;100393.19;10169233;29;20047;-74
2023/06/09 22:50:56;;;;;;;9.30;6.65;;;;;;;20.92;50.02;100399.69;10168158;29;20048;-73
2023/06/09 22:56:00;;;;;;;9.65;7.50;;;;;;;20.77;50.56;100405.19;10158909;29;20050;-73
2023/06/09 23:01:03;;;;;;;12.75;7.28;;;;;;;20.63;50.16;100403.34;10170595;29;20503;-73
2023/06/09 23:06:14;;;;;;;6.57;5.80;;;;;;;20.65;49.28;100404.00;10171258;29;20052;-74
2023/06/09 23:11:18;;;;;;;11.80;6.87;;;;;;;20.62;49.45;100404.34;10170196;29;20040;-73
2023/06/09 23:16:22;;;;;;;10.10;6.60;;;;;;;20.65;49.67;100406.72;10170729;29;20135;-73